Livingston, CA (95334)

8:15 PM PDT on October 01, 2014 (GMT -0700)
Ballico Weather | Change Station
CLOSE
Current Station
Personal Weather Station
Location: Ballico, CA
Elevation: 164 ft
Nearby Weather Stations

Elev 164 ft 37.43 °N, 120.72 °W | Updated 2 seconds ago

Clear
Clear
66.6 °F
Feels Like 66.6 °F
N
0.0
Wind Variable Wind from NNW
Gusts 0.0 mph

Today
High -- | Low -- °F
--% Chance of Precip.
Yesterday
High -- | Low -- °F
Precip. -- in
6:58 AM 6:45 PM
First Quarter, 54% visible
Pressure 29.81 in
Visibility 10.0 miles
Clouds Clear
Dew Point 48 °F
Humidity 52%
Rainfall 0.00 in
Snow Depth 0 in , 0 in , 1 in
UV 0 out of 12
Pollen 5.40 out of 12
Ozone Good
Flu Activity Not available.
METAR KMER 010335Z AUTO 01008KT 10SM CLR 19/12 A2981 RMK AO1

More Conditions Fewer Conditions

Pressure 29.81 in
Visibility 10.0 miles
Clouds Clear
Dew Point 48 °F
Humidity 52%
Rainfall 0.00 in
Snow Depth 0 in , 0 in , 1 in
UV 0 out of 12
Pollen 5.40 out of 12
Ozone Good
Flu Activity Not available.
METAR KMER 010335Z AUTO 01008KT 10SM CLR 19/12 A2981 RMK AO1

More Conditions Fewer Conditions

10-Day Weather Forecast

Almanac

Astronomy

Oct. 01, 2014 Rise Set
Actual Time 6:58 AM PDT 6:45 PM PDT
Civil Twilight 6:32 AM PDT 7:11 PM PDT
Nautical Twilight 6:02 AM PDT 7:42 PM PDT
Astronomical Twilight 5:31 AM PDT 8:12 PM PDT
Moon 1:58 PM PDT (10/1) No Moon Set
Length of Visible Light 12h 39m
Length of Day
11h 47m
Tomorrow will be 2m 22s shorter.
First Quarter, 54% of the Moon is Illuminated
Today
First Quarter
Oct 8
Full
Oct 15
Last Quarter
Oct 23
New
Oct 30
First Quarter

Today's Extremes

State Highs State Lows

Community

WunderPhotos

Upload Photos

1,758,157 photos uploaded!

WunderBlogs® & News

Nearby

Air Quality

  Air Quality AQ Index Pollutant
Yesterday Good
OZONE
Current Good
OZONE
Wednesday Good
OZONE
Thursday Good
PM2.5
Friday Moderate
PM2.5
Saturday Moderate
PM2.5
Sunday Moderate
PM2.5
Monday Moderate
PM2.5

Snow Depth

Station Depth Elevation
Tahoe City Cross 0 in 6750 ft
Hagan's Meadow 0 in 8000 ft
Leavitt Meadows 1 in 7200 ft
CSS Lab 0 in 6900 ft
Adin Mountain 0 in 6200 ft

Earthquake Activity

City Distance Mag. Time & Date
South Dos Palos, California 52 miles 3.0 11:17 AM PDT
2014-10-01
Shandon, California 112 miles 2.9 5:34 PM PDT
2014-09-30
East Foothills, California 57 miles 2.6 3:34 PM PDT
2014-09-30
South Dos Palos, California 51 miles 2.7 3:08 PM PDT
2014-09-30
Minimum magnitude displayed is 2.5.

Coastal Water Temperatures

Place Temperature
No Stations Reporting

Nearby Weather Stations